Time;durP1;ratioP1;P1;durP2;ratioP2;P2;SDS_P1;SDS_P2;PMS_P1;PMS_P2;Temp;Humidity;BMP_temperature;BMP_pressure;BME280_temperature;BME280_humidity;BME280_pressure;Samples;Min_cycle;Max_cycle;Signal;HPM_P1;HPM_P2
2022/07/12 00:01:29;;;;;;;7.10;3.45;;;12.70;99.90;;;;;;5042862;28;20012;-55
2022/07/12 00:03:55;;;;;;;7.10;3.20;;;12.70;99.90;;;;;;5060407;28;20055;-54
2022/07/12 00:06:21;;;;;;;14.07;3.25;;;12.70;99.90;;;;;;5061548;28;20450;-54
2022/07/12 00:08:46;;;;;;;12.35;3.88;;;12.80;99.90;;;;;;5061753;28;20024;-54
2022/07/12 00:11:12;;;;;;;14.20;4.15;;;12.80;99.90;;;;;;5060251;28;20458;-54
2022/07/12 00:13:38;;;;;;;8.32;3.50;;;12.80;99.90;;;;;;5061656;28;20017;-53
2022/07/12 00:16:04;;;;;;;10.77;3.60;;;12.60;99.90;;;;;;5061074;28;20121;-54
2022/07/12 00:18:30;;;;;;;12.68;3.60;;;12.70;99.90;;;;;;5059996;28;20035;-54
2022/07/12 00:20:55;;;;;;;10.10;3.45;;;12.80;99.90;;;;;;5060319;28;20079;-54
2022/07/12 00:23:21;;;;;;;10.43;3.55;;;12.80;99.90;;;;;;5061351;28;20028;-54
2022/07/12 00:25:47;;;;;;;7.13;3.60;;;12.90;99.90;;;;;;5061604;28;20490;-54
2022/07/12 00:28:14;;;;;;;9.23;3.65;;;12.90;99.90;;;;;;5059425;28;20181;-53
2022/07/12 00:30:39;;;;;;;12.88;3.65;;;13.00;99.90;;;;;;5060824;28;20373;-54
2022/07/12 00:33:05;;;;;;;10.75;3.95;;;12.90;99.90;;;;;;5061196;28;20532;-54
2022/07/12 00:35:31;;;;;;;6.68;3.05;;;12.90;99.90;;;;;;5059839;28;20072;-54
2022/07/12 00:37:56;;;;;;;5.85;3.03;;;12.90;99.90;;;;;;5065776;28;20493;-55
2022/07/12 00:40:22;;;;;;;7.43;3.17;;;13.00;99.90;;;;;;5071725;28;20029;-54
2022/07/12 00:42:48;;;;;;;12.25;3.80;;;13.00;99.90;;;;;;5071927;28;20078;-54
2022/07/12 00:45:14;;;;;;;5.95;3.40;;;13.10;99.90;;;;;;5071939;28;20078;-54
2022/07/12 00:47:44;;;;;;;7.43;3.17;;;13.10;99.90;;;;;;5069550;28;20519;-54
2022/07/12 00:50:15;;;;;;;6.88;3.30;;;13.10;99.90;;;;;;5071763;28;20524;-54
2022/07/12 00:52:42;;;;;;;4.43;2.58;;;13.10;99.90;;;;;;5071840;28;20111;-53
2022/07/12 00:55:09;;;;;;;;;;;13.10;99.90;;;;;;5072263;28;20479;-54
2022/07/12 00:57:39;;;;;;;6.03;2.55;;;13.10;99.90;;;;;;5071680;28;19957;-54
2022/07/12 01:00:07;;;;;;;8.23;2.65;;;13.10;99.90;;;;;;5071778;28;20032;-54
2022/07/12 01:02:35;;;;;;;6.45;2.63;;;13.20;99.90;;;;;;5071797;28;20036;-54
2022/07/12 01:05:02;;;;;;;3.33;2.25;;;13.20;99.90;;;;;;5071763;28;20033;-53
2022/07/12 01:07:28;;;;;;;7.68;2.58;;;13.20;99.90;;;;;;5071616;28;20086;-54
2022/07/12 01:09:55;;;;;;;4.95;2.83;;;13.20;99.90;;;;;;5071559;28;20170;-53
2022/07/12 01:12:21;;;;;;;7.22;2.78;;;13.20;99.90;;;;;;5071498;28;20035;-54
2022/07/12 01:14:49;;;;;;;8.65;2.85;;;13.20;99.90;;;;;;5071360;28;20476;-53
2022/07/12 01:17:24;;;;;;;6.78;2.25;;;13.20;99.90;;;;;;5071387;28;20029;-54
2022/07/12 01:19:51;;;;;;;4.25;2.20;;;13.30;99.90;;;;;;5071215;28;20036;-53
2022/07/12 01:22:17;;;;;;;;;;;13.30;99.90;;;;;;5071858;28;20391;-53
2022/07/12 01:24:46;;;;;;;6.35;3.05;;;13.40;99.90;;;;;;5053026;28;20028;-53
2022/07/12 01:27:13;;;;;;;8.68;2.10;;;13.30;99.90;;;;;;5071116;28;20028;-54
2022/07/12 01:29:39;;;;;;;7.63;2.63;;;13.30;99.90;;;;;;5071446;28;20040;-54
2022/07/12 01:32:24;;;;;;;8.40;2.50;;;13.30;99.90;;;;;;5071190;28;20028;-55
2022/07/12 01:34:55;;;;;;;6.25;2.47;;;13.30;99.90;;;;;;5071006;28;20032;-54
2022/07/12 01:37:22;;;;;;;5.28;2.65;;;13.20;99.90;;;;;;5071087;28;20025;-54
2022/07/12 01:39:49;;;;;;;;;;;13.20;99.90;;;;;;5071108;28;20078;-53
2022/07/12 01:42:15;;;;;;;6.65;2.50;;;13.20;99.90;;;;;;5070917;28;19931;-53
2022/07/12 01:44:41;;;;;;;5.95;2.17;;;13.20;99.90;;;;;;5070809;28;20476;-53
2022/07/12 01:47:07;;;;;;;5.97;2.20;;;13.20;99.90;;;;;;5070554;28;20388;-54
2022/07/12 01:49:33;;;;;;;8.00;2.35;;;13.30;99.90;;;;;;5070593;28;20460;-54
2022/07/12 01:51:59;;;;;;;7.65;2.03;;;13.30;99.90;;;;;;5070742;28;20033;-54
2022/07/12 01:54:25;;;;;;;5.60;1.75;;;13.30;99.90;;;;;;5070709;28;20028;-54
2022/07/12 01:56:54;;;;;;;4.22;2.30;;;13.20;99.90;;;;;;5070855;28;20020;-54
2022/07/12 01:59:20;;;;;;;8.18;2.78;;;13.20;99.90;;;;;;5070989;28;20060;-54
2022/07/12 02:01:46;;;;;;;5.18;2.30;;;13.10;99.90;;;;;;5070607;28;20105;-54
2022/07/12 02:04:15;;;;;;;8.07;2.45;;;13.10;99.90;;;;;;5070619;28;20131;-53
2022/07/12 02:06:43;;;;;;;3.75;2.15;;;13.00;99.90;;;;;;5070382;28;20029;-53
2022/07/12 02:09:08;;;;;;;;;;;12.90;99.90;;;;;;5071001;28;20056;-53
2022/07/12 02:11:34;;;;;;;6.53;2.40;;;12.90;99.90;;;;;;5052250;28;20421;-53
2022/07/12 02:14:00;;;;;;;8.40;2.58;;;12.90;99.90;;;;;;5070607;28;20908;-53
2022/07/12 02:16:25;;;;;;;5.72;3.13;;;12.60;99.90;;;;;;5070323;28;20391;-56
2022/07/12 02:18:51;;;;;;;8.55;3.08;;;12.60;99.90;;;;;;5070282;28;20089;-54
2022/07/12 02:21:17;;;;;;;6.20;3.17;;;12.60;99.90;;;;;;5070673;28;20367;-54
2022/07/12 02:23:42;;;;;;;13.10;3.13;;;12.70;99.90;;;;;;5070053;28;20368;-55
2022/07/12 02:26:08;;;;;;;6.43;3.50;;;12.80;99.90;;;;;;5070130;28;20033;-53
2022/07/12 02:28:34;;;;;;;8.88;3.95;;;12.70;99.90;;;;;;5070168;28;20029;-53
2022/07/12 02:30:59;;;;;;;9.75;3.63;;;12.60;99.90;;;;;;5070052;28;20126;-54
2022/07/12 02:33:25;;;;;;;6.57;3.78;;;12.70;99.90;;;;;;5070090;28;20082;-54
2022/07/12 02:35:51;;;;;;;8.63;4.93;;;12.70;99.90;;;;;;5069865;28;20480;-54
2022/07/12 02:38:17;;;;;;;8.30;3.22;;;12.60;99.90;;;;;;5069919;28;20050;-56
2022/07/12 02:41:15;;;;;;;13.60;3.15;;;12.70;99.90;;;;;;5070109;28;20028;-54
2022/07/12 02:43:34;;;;;;;6.97;3.15;;;12.70;99.90;;;;;;5065927;28;20563;-53
2022/07/12 02:46:04;;;;;;;13.18;3.90;;;12.60;99.90;;;;;;5068649;28;20036;-53
2022/07/12 02:48:30;;;;;;;9.35;3.90;;;12.50;99.90;;;;;;5069519;28;20080;-54
2022/07/12 02:50:56;;;;;;;8.48;3.58;;;12.50;99.90;;;;;;5069758;28;20075;-55
2022/07/12 02:53:22;;;;;;;6.95;3.67;;;12.40;99.90;;;;;;5069401;28;20021;-55
2022/07/12 02:55:48;;;;;;;9.65;3.72;;;12.40;99.90;;;;;;5070117;28;20149;-55
2022/07/12 02:58:14;;;;;;;11.10;4.18;;;12.40;99.90;;;;;;5069679;28;20025;-55
2022/07/12 03:00:41;;;;;;;12.05;4.13;;;12.50;99.90;;;;;;5069649;28;20127;-54
2022/07/12 03:03:07;;;;;;;8.35;3.92;;;12.50;99.90;;;;;;5069853;28;20128;-55
2022/07/12 03:05:34;;;;;;;7.78;3.58;;;12.40;99.90;;;;;;5069877;28;20029;-55
2022/07/12 03:08:00;;;;;;;7.27;3.47;;;12.40;99.90;;;;;;5069680;28;20078;-55
2022/07/12 03:10:26;;;;;;;8.18;3.53;;;12.40;99.90;;;;;;5069544;28;20669;-54
2022/07/12 03:12:52;;;;;;;11.27;4.10;;;12.40;99.90;;;;;;5069568;28;20468;-53
2022/07/12 03:15:17;;;;;;;7.82;3.50;;;12.40;99.90;;;;;;5069778;28;20482;-56
2022/07/12 03:17:43;;;;;;;7.15;3.20;;;12.50;99.90;;;;;;5069465;28;20024;-56
2022/07/12 03:20:11;;;;;;;9.43;3.70;;;12.40;99.90;;;;;;5069571;28;20028;-53
2022/07/12 03:22:37;;;;;;;7.75;3.05;;;12.30;99.90;;;;;;5069576;28;20387;-53
2022/07/12 03:25:04;;;;;;;9.02;3.10;;;12.40;99.90;;;;;;5069647;28;20063;-55
2022/07/12 03:27:32;;;;;;;8.47;3.77;;;12.30;99.90;;;;;;5069671;28;20052;-54
2022/07/12 03:29:58;;;;;;;5.70;2.65;;;12.30;99.90;;;;;;5069442;28;20047;-53
2022/07/12 03:32:24;;;;;;;9.30;3.20;;;12.40;99.90;;;;;;5069385;28;20024;-53
2022/07/12 03:34:50;;;;;;;9.63;3.33;;;12.40;99.90;;;;;;5069342;28;20149;-54
2022/07/12 03:37:15;;;;;;;8.43;3.35;;;12.40;99.90;;;;;;5069382;28;20033;-54
2022/07/12 03:39:41;;;;;;;12.18;3.38;;;12.40;99.90;;;;;;5069565;28;20496;-54
2022/07/12 03:42:06;;;;;;;15.45;3.20;;;12.50;99.90;;;;;;5069217;28;20471;-54
2022/07/12 03:44:33;;;;;;;9.98;3.63;;;12.40;99.90;;;;;;5069321;28;20034;-54
2022/07/12 03:46:59;;;;;;;10.55;3.30;;;12.30;99.90;;;;;;5069029;28;20561;-55
2022/07/12 03:49:25;;;;;;;11.65;3.60;;;12.30;99.90;;;;;;5069809;28;20036;-54
2022/07/12 03:51:50;;;;;;;7.70;3.55;;;12.30;99.90;;;;;;5069709;28;20539;-54
2022/07/12 03:54:16;;;;;;;8.30;4.43;;;12.20;99.90;;;;;;5069363;28;20119;-54
2022/07/12 03:59:27;;;;;;;15.32;5.18;;;12.40;99.90;;;;;;5069442;28;20587;-54
2022/07/12 04:01:53;;;;;;;11.57;3.67;;;12.40;99.90;;;;;;5069402;28;20024;-56
2022/07/12 04:04:18;;;;;;;10.50;3.80;;;12.40;99.90;;;;;;5071524;28;20089;-56
2022/07/12 04:06:44;;;;;;;10.25;3.70;;;12.40;99.90;;;;;;5072659;28;20383;-55
2022/07/12 04:09:10;;;;;;;11.50;3.70;;;12.40;99.90;;;;;;5072699;28;20386;-54
2022/07/12 04:11:35;;;;;;;8.38;4.18;;;12.40;99.90;;;;;;5072674;28;20043;-54
2022/07/12 04:14:01;;;;;;;11.45;4.90;;;12.20;99.90;;;;;;5072703;28;20036;-54
2022/07/12 04:16:29;;;;;;;8.35;5.00;;;12.20;99.90;;;;;;5072704;28;20063;-55
2022/07/12 04:18:55;;;;;;;18.65;7.45;;;12.10;99.90;;;;;;5072523;28;20037;-55
2022/07/12 04:21:21;;;;;;;11.13;5.53;;;12.20;99.90;;;;;;5072462;28;20086;-54
2022/07/12 04:23:47;;;;;;;9.93;5.35;;;12.30;99.90;;;;;;5072794;28;20024;-55
2022/07/12 04:26:12;;;;;;;13.07;6.75;;;12.30;99.90;;;;;;5072515;28;20486;-54
2022/07/12 04:28:38;;;;;;;15.68;6.45;;;12.30;99.90;;;;;;5072331;28;20490;-54
2022/07/12 04:31:04;;;;;;;14.88;6.38;;;12.30;99.90;;;;;;5072436;28;20713;-55
2022/07/12 04:33:30;;;;;;;10.95;6.07;;;12.20;99.90;;;;;;5072245;28;20418;-54
2022/07/12 04:35:55;;;;;;;13.65;6.72;;;12.10;99.90;;;;;;5072055;28;20035;-55
2022/07/12 04:38:21;;;;;;;12.55;6.25;;;12.10;99.90;;;;;;5072316;28;20032;-55
2022/07/12 04:40:47;;;;;;;8.43;5.03;;;12.00;99.90;;;;;;5072270;28;20055;-54
2022/07/12 04:43:12;;;;;;;11.02;5.03;;;12.00;99.90;;;;;;5071904;28;20036;-54
2022/07/12 04:45:38;;;;;;;12.50;6.88;;;12.00;99.90;;;;;;5071926;28;20064;-54
2022/07/12 04:48:04;;;;;;;10.95;6.18;;;12.10;99.90;;;;;;5071798;28;20055;-55
2022/07/12 04:50:30;;;;;;;12.45;5.22;;;12.20;99.90;;;;;;5071736;28;20040;-54
2022/07/12 04:52:55;;;;;;;11.98;5.82;;;12.30;99.90;;;;;;5071989;28;20029;-54
2022/07/12 04:55:21;;;;;;;7.32;4.63;;;12.40;99.90;;;;;;5071794;28;20074;-54
2022/07/12 04:57:47;;;;;;;15.23;6.18;;;12.40;99.90;;;;;;5072238;28;20104;-54
2022/07/12 05:00:13;;;;;;;8.93;4.72;;;12.40;99.90;;;;;;5071826;28;20116;-55
2022/07/12 05:02:39;;;;;;;12.70;4.65;;;12.40;99.90;;;;;;5053448;28;20386;-54
2022/07/12 05:05:05;;;;;;;16.70;4.22;;;12.40;99.90;;;;;;5071518;28;20030;-55
2022/07/12 05:07:30;;;;;;;9.40;4.45;;;12.50;99.90;;;;;;5071548;28;20025;-55
2022/07/12 05:09:56;;;;;;;9.93;4.40;;;12.50;99.90;;;;;;5071397;28;20054;-54
2022/07/12 05:12:22;;;;;;;7.50;4.20;;;12.60;99.90;;;;;;5071476;28;20436;-55
2022/07/12 05:14:47;;;;;;;9.45;4.70;;;12.60;99.90;;;;;;5070878;28;20058;-54
2022/07/12 05:17:13;;;;;;;9.35;4.70;;;12.60;99.90;;;;;;5071149;28;20025;-55
2022/07/12 05:19:39;;;;;;;10.98;5.28;;;12.70;99.90;;;;;;5071485;28;20021;-54
2022/07/12 05:22:05;;;;;;;15.95;5.15;;;12.80;99.90;;;;;;5071060;28;20488;-55
2022/07/12 05:24:30;;;;;;;17.33;6.00;;;12.70;99.90;;;;;;5071283;28;20429;-54
2022/07/12 05:26:56;;;;;;;18.45;5.80;;;12.80;99.90;;;;;;5071149;28;20016;-55
2022/07/12 05:29:22;;;;;;;8.18;4.88;;;12.90;99.90;;;;;;5071167;28;20078;-55
2022/07/12 05:31:48;;;;;;;14.15;4.95;;;13.00;99.90;;;;;;5071143;28;20071;-54
2022/07/12 05:34:14;;;;;;;13.40;4.28;;;13.00;99.90;;;;;;5071015;28;20020;-54
2022/07/12 05:36:40;;;;;;;12.68;5.18;;;12.90;99.90;;;;;;5070825;28;20451;-55
2022/07/12 05:39:06;;;;;;;8.57;4.97;;;12.90;99.90;;;;;;5070943;28;20052;-54
2022/07/12 05:41:32;;;;;;;6.60;3.75;;;13.10;99.90;;;;;;5070822;28;20409;-55
2022/07/12 05:43:57;;;;;;;10.48;4.68;;;13.20;99.90;;;;;;5071257;28;20028;-55
2022/07/12 05:46:23;;;;;;;9.18;4.15;;;13.10;99.90;;;;;;5070653;28;20592;-54
2022/07/12 05:48:49;;;;;;;8.85;4.40;;;13.20;99.90;;;;;;5070728;28;20105;-54
2022/07/12 05:53:58;;;;;;;14.70;4.72;;;13.30;99.90;;;;;;5070613;28;20035;-53
2022/07/12 05:56:24;;;;;;;9.75;4.85;;;13.40;99.90;;;;;;5070471;28;20032;-53
2022/07/12 05:58:50;;;;;;;12.00;4.75;;;13.50;99.90;;;;;;5070697;28;20028;-53
2022/07/12 06:01:17;;;;;;;7.28;4.30;;;13.40;99.90;;;;;;5070627;28;20028;-53
2022/07/12 06:03:43;;;;;;;11.93;4.40;;;13.40;99.90;;;;;;5070556;28;20020;-54
2022/07/12 06:06:09;;;;;;;7.90;4.55;;;13.40;99.90;;;;;;5070143;28;20479;-53
2022/07/12 06:08:35;;;;;;;11.32;4.95;;;13.50;99.90;;;;;;5070271;28;20051;-53
2022/07/12 06:11:00;;;;;;;6.28;4.38;;;13.60;99.90;;;;;;5070209;28;20037;-54
2022/07/12 06:13:26;;;;;;;9.25;3.97;;;13.80;99.90;;;;;;5070400;28;20051;-53
2022/07/12 06:15:52;;;;;;;8.02;4.05;;;13.70;99.90;;;;;;5070337;28;20036;-53
2022/07/12 06:18:17;;;;;;;8.25;4.28;;;13.80;99.90;;;;;;5070220;28;20090;-53
2022/07/12 06:20:43;;;;;;;8.05;4.45;;;13.90;99.90;;;;;;5069961;28;20029;-54
2022/07/12 06:23:09;;;;;;;7.90;4.53;;;14.10;99.90;;;;;;5069913;28;20028;-54
2022/07/12 06:25:35;;;;;;;7.32;3.97;;;14.20;99.90;;;;;;5070154;28;20033;-54
2022/07/12 06:28:01;;;;;;;8.80;4.10;;;14.30;99.90;;;;;;5069411;28;20493;-53
2022/07/12 06:30:27;;;;;;;3.80;2.63;;;14.60;99.90;;;;;;5070049;28;20040;-54
2022/07/12 06:32:53;;;;;;;7.05;3.13;;;14.60;99.90;;;;;;5069821;28;20029;-54
2022/07/12 06:35:18;;;;;;;7.85;3.05;;;14.60;99.90;;;;;;5069895;28;20119;-54
2022/07/12 06:37:44;;;;;;;10.45;3.00;;;14.70;99.90;;;;;;5069729;28;20104;-54
2022/07/12 06:40:11;;;;;;;9.00;2.03;;;14.90;99.90;;;;;;5068500;28;20035;-53
2022/07/12 06:42:37;;;;;;;4.37;2.30;;;15.00;99.90;;;;;;5069560;28;20051;-53
2022/07/12 06:45:03;;;;;;;4.60;2.20;;;15.10;99.90;;;;;;5051838;28;20412;-53
2022/07/12 06:47:29;;;;;;;7.00;2.45;;;15.10;99.90;;;;;;5070019;28;20055;-55
2022/07/12 06:49:54;;;;;;;5.00;2.35;;;15.20;99.90;;;;;;5068220;28;20041;-55
2022/07/12 06:52:20;;;;;;;4.72;2.00;;;15.30;99.90;;;;;;5069359;28;20020;-55
2022/07/12 06:54:46;;;;;;;7.25;1.85;;;15.40;99.90;;;;;;5069566;28;20032;-55
2022/07/12 06:57:11;;;;;;;4.53;1.67;;;15.50;99.90;;;;;;5069605;28;20048;-55
2022/07/12 06:59:37;;;;;;;4.53;1.80;;;15.50;99.90;;;;;;5069732;28;20025;-53
2022/07/12 07:02:04;;;;;;;3.75;1.70;;;15.60;99.90;;;;;;5069619;28;20028;-55
2022/07/12 07:04:30;;;;;;;2.90;1.40;;;15.60;99.90;;;;;;5069361;28;20035;-53
2022/07/12 07:06:56;;;;;;;4.45;1.50;;;15.70;99.90;;;;;;5051292;28;20021;-53
2022/07/12 07:09:21;;;;;;;8.07;1.70;;;15.80;99.90;;;;;;5051452;28;20029;-53
2022/07/12 07:11:47;;;;;;;3.45;1.30;;;15.80;99.90;;;;;;5069487;28;20028;-53
2022/07/12 07:14:13;;;;;;;4.90;1.25;;;16.00;99.90;;;;;;5069787;28;20027;-53
2022/07/12 07:16:39;;;;;;;3.28;1.20;;;16.10;99.90;;;;;;5069465;28;20056;-53
2022/07/12 07:19:05;;;;;;;3.17;0.93;;;16.10;99.90;;;;;;5051285;28;20442;-55
2022/07/12 07:21:31;;;;;;;3.95;1.38;;;16.20;99.90;;;;;;5069213;28;20044;-53
2022/07/12 07:23:57;;;;;;;4.30;1.15;;;16.40;99.90;;;;;;5069423;28;20399;-54
2022/07/12 07:26:23;;;;;;;5.43;1.77;;;16.60;99.90;;;;;;5069376;28;20032;-53
2022/07/12 07:31:37;;;;;;;3.78;0.95;;;16.70;99.90;;;;;;5069985;28;20161;-53
2022/07/12 07:34:04;;;;;;;6.10;0.85;;;16.80;99.90;;;;;;5069447;28;20025;-54
2022/07/12 07:36:30;;;;;;;2.28;0.95;;;16.80;99.90;;;;;;5050942;28;20372;-55
2022/07/12 07:38:59;;;;;;;2.13;0.88;;;16.90;99.90;;;;;;5071504;28;20025;-53
2022/07/12 07:41:24;;;;;;;3.92;0.90;;;17.00;99.90;;;;;;5073407;28;20040;-54
2022/07/12 07:43:50;;;;;;;6.55;1.25;;;17.00;99.90;;;;;;5073225;28;20024;-54
2022/07/12 07:46:16;;;;;;;2.75;0.90;;;17.00;99.90;;;;;;5072897;28;20060;-54
2022/07/12 07:48:42;;;;;;;3.70;1.10;;;17.00;99.90;;;;;;5073266;28;20499;-54
2022/07/12 07:51:08;;;;;;;6.20;1.70;;;17.10;99.90;;;;;;5072873;28;20407;-53
2022/07/12 07:53:33;;;;;;;3.08;1.20;;;17.10;99.90;;;;;;5073164;28;20021;-54
2022/07/12 07:56:00;;;;;;;5.53;1.65;;;17.20;99.90;;;;;;5072898;28;20032;-54
2022/07/12 07:58:26;;;;;;;4.57;1.40;;;17.30;99.90;;;;;;5054902;28;20716;-54
2022/07/12 08:00:52;;;;;;;4.53;1.50;;;17.50;99.90;;;;;;5072773;28;20041;-54
2022/07/12 08:03:19;;;;;;;1.83;1.17;;;17.50;99.90;;;;;;5072868;28;20048;-54
2022/07/12 08:05:46;;;;;;;1.80;1.10;;;17.50;99.90;;;;;;5072962;28;20031;-53
2022/07/12 08:08:11;;;;;;;2.80;0.98;;;17.60;99.90;;;;;;5072415;28;20033;-55
2022/07/12 08:10:37;;;;;;;4.95;1.35;;;17.80;99.90;;;;;;5072564;28;20043;-54
2022/07/12 08:13:03;;;;;;;6.65;1.08;;;17.80;99.90;;;;;;5072666;28;20024;-56
2022/07/12 08:15:29;;;;;;;5.07;1.40;;;17.90;99.90;;;;;;5072541;28;20032;-54
2022/07/12 08:17:55;;;;;;;2.72;1.25;;;17.90;99.90;;;;;;5072622;28;20060;-54
2022/07/12 08:20:23;;;;;;;4.90;1.40;;;18.00;99.90;;;;;;5072596;28;20112;-54
2022/07/12 08:22:48;;;;;;;4.82;0.98;;;17.90;99.90;;;;;;5071149;28;20106;-54
2022/07/12 08:25:14;;;;;;;4.47;1.00;;;17.90;99.90;;;;;;5072440;28;20463;-53
2022/07/12 08:27:40;;;;;;;7.88;1.33;;;17.90;99.90;;;;;;5072420;28;20056;-54
2022/07/12 08:30:07;;;;;;;6.75;1.02;;;18.00;99.90;;;;;;5072149;28;20040;-54
2022/07/12 08:32:33;;;;;;;4.65;0.98;;;18.10;99.90;;;;;;5072416;28;20475;-54
2022/07/12 08:34:59;;;;;;;4.88;1.45;;;18.30;99.90;;;;;;5072144;28;20045;-54
2022/07/12 08:37:25;;;;;;;8.10;1.15;;;18.40;99.90;;;;;;5072208;28;20460;-53
2022/07/12 08:39:50;;;;;;;3.65;1.00;;;18.30;99.90;;;;;;5053404;28;20017;-55
2022/07/12 08:42:18;;;;;;;2.53;0.90;;;18.40;99.90;;;;;;5065503;28;20037;-55
2022/07/12 08:44:53;;;;;;;3.22;0.98;;;18.30;99.90;;;;;;5063065;28;20476;-56
2022/07/12 08:47:18;;;;;;;2.00;0.73;;;18.30;99.90;;;;;;5067833;28;20484;-54
2022/07/12 08:50:10;;;;;;;6.75;1.35;;;18.00;99.90;;;;;;5042499;28;20128;-54
2022/07/12 08:52:43;;;;;;;5.40;1.10;;;17.90;99.90;;;;;;5062639;28;20025;-53
2022/07/12 08:55:34;;;;;;;5.03;0.88;;;17.70;99.90;;;;;;5061215;28;20052;-53
2022/07/12 08:58:03;;;;;;;4.10;1.20;;;17.80;99.90;;;;;;5065169;28;20086;-53
2022/07/12 09:00:30;;;;;;;4.53;0.80;;;17.90;99.90;;;;;;5071591;28;20040;-54
2022/07/12 09:03:00;;;;;;;3.30;1.10;;;18.10;99.90;;;;;;5071549;28;20078;-56
2022/07/12 09:05:32;;;;;;;2.95;0.70;;;18.30;99.90;;;;;;5069355;28;20442;-54
2022/07/12 09:08:05;;;;;;;6.18;0.98;;;18.40;99.90;;;;;;5071056;28;20487;-53
2022/07/12 09:10:31;;;;;;;1.92;0.60;;;18.50;99.90;;;;;;5071371;28;20040;-54
2022/07/12 09:12:57;;;;;;;5.30;0.80;;;18.50;99.90;;;;;;5070623;28;20027;-53
2022/07/12 09:15:24;;;;;;;3.40;0.80;;;18.50;99.90;;;;;;5071097;28;20036;-53
2022/07/12 09:18:17;;;;;;;1.30;0.68;;;18.50;99.90;;;;;;5070981;28;20700;-54
2022/07/12 09:20:51;;;;;;;4.53;1.02;;;18.60;99.90;;;;;;5067958;28;20040;-54
2022/07/12 09:23:17;;;;;;;4.65;1.50;;;18.60;99.90;;;;;;5070474;28;20089;-54
2022/07/12 09:25:47;;;;;;;2.03;0.73;;;18.60;99.90;;;;;;5066536;28;20396;-53
2022/07/12 09:28:13;;;;;;;4.45;1.05;;;18.60;99.90;;;;;;5050602;28;20031;-54
2022/07/12 09:30:50;;;;;;;4.72;0.80;;;18.60;99.90;;;;;;5070995;28;20064;-54
2022/07/12 09:36:07;;;;;;;4.93;1.17;;;18.70;99.90;;;;;;5070297;28;20070;-54
2022/07/12 09:38:54;;;;;;;4.93;1.05;;;18.80;99.90;;;;;;5052453;28;20782;-55
2022/07/12 09:41:21;;;;;;;4.43;1.15;;;19.00;99.90;;;;;;5051143;28;20059;-54
2022/07/12 09:43:52;;;;;;;4.40;1.13;;;19.10;99.90;;;;;;5051177;28;20021;-54
2022/07/12 09:46:17;;;;;;;4.22;1.30;;;19.10;99.90;;;;;;5068328;28;20105;-55
2022/07/12 09:48:45;;;;;;;3.90;1.27;;;19.10;99.90;;;;;;5052484;28;20087;-55
2022/07/12 09:51:14;;;;;;;2.80;0.93;;;19.10;99.90;;;;;;5070650;28;20032;-54
2022/07/12 09:53:51;;;;;;;6.40;1.10;;;19.00;99.90;;;;;;5070531;28;20032;-54
2022/07/12 09:56:21;;;;;;;2.28;0.93;;;19.00;99.90;;;;;;5064308;28;20376;-53
2022/07/12 09:58:55;;;;;;;5.32;1.45;;;19.10;99.90;;;;;;5062248;28;20029;-54
2022/07/12 10:01:23;;;;;;;3.85;1.00;;;19.30;99.90;;;;;;5066837;28;20020;-54
2022/07/12 10:03:50;;;;;;;4.43;1.10;;;19.30;99.90;;;;;;5058308;28;20456;-53
2022/07/12 10:06:36;;;;;;;2.75;0.82;;;19.40;99.90;;;;;;5062705;28;20028;-54
2022/07/12 10:09:03;;;;;;;3.85;0.93;;;19.30;99.90;;;;;;5040587;28;20036;-53
2022/07/12 10:11:29;;;;;;;5.75;1.35;;;19.20;99.90;;;;;;5058884;28;20052;-53
2022/07/12 10:13:55;;;;;;;7.22;1.77;;;18.80;99.90;;;;;;5056391;28;20028;-55
2022/07/12 10:16:26;;;;;;;3.88;1.17;;;18.30;99.90;;;;;;5042312;28;20123;-55
2022/07/12 10:19:22;;;;;;;3.53;1.08;;;17.80;99.90;;;;;;5044121;28;20062;-53
2022/07/12 10:21:49;;;;;;;4.47;1.00;;;17.60;99.90;;;;;;5043630;28;20025;-54
2022/07/12 10:24:54;;;;;;;3.57;1.13;;;17.30;99.90;;;;;;5059167;28;20029;-53
2022/07/12 10:27:20;;;;;;;2.55;1.40;;;17.40;99.90;;;;;;5014861;28;20036;-52
2022/07/12 10:29:53;;;;;;;3.70;0.80;;;17.40;99.90;;;;;;5059040;28;20488;-52
2022/07/12 10:32:40;;;;;;;2.72;1.33;;;17.50;99.90;;;;;;5063980;28;20037;-54
2022/07/12 10:35:12;;;;;;;2.45;1.15;;;17.70;99.90;;;;;;5068026;28;20028;-52
2022/07/12 10:37:38;;;;;;;4.32;0.98;;;18.10;99.90;;;;;;5040820;28;20056;-53
2022/07/12 10:40:18;;;;;;;5.70;1.10;;;18.30;99.90;;;;;;5060590;28;20064;-52
2022/07/12 10:43:03;;;;;;;3.00;0.90;;;18.60;99.90;;;;;;5060165;28;20021;-53
2022/07/12 10:45:33;;;;;;;6.13;1.30;;;19.00;99.90;;;;;;5066936;28;20036;-53
2022/07/12 10:48:23;;;;;;;4.53;1.25;;;19.20;99.90;;;;;;5068436;28;20047;-52
2022/07/12 10:50:55;;;;;;;6.03;1.77;;;19.50;99.90;;;;;;5058798;28;20055;-52
2022/07/12 10:53:26;;;;;;;10.27;2.15;;;20.10;99.90;;;;;;5069674;28;20108;-53
2022/07/12 10:56:04;;;;;;;5.22;0.88;;;20.50;99.90;;;;;;5069485;28;20110;-52
2022/07/12 10:58:33;;;;;;;;;;;20.90;99.90;;;;;;5063012;28;20032;-52
2022/07/12 11:01:03;;;;;;;7.00;1.70;;;20.90;99.90;;;;;;5065116;28;19920;-53
2022/07/12 11:03:37;;;;;;;4.15;1.05;;;21.00;99.90;;;;;;5066823;28;20485;-53
2022/07/12 11:06:04;;;;;;;5.65;1.60;;;20.80;99.90;;;;;;5069702;28;20021;-52
2022/07/12 11:08:30;;;;;;;10.87;3.00;;;20.50;99.90;;;;;;5068952;28;20036;-53
2022/07/12 11:10:58;;;;;;;4.37;0.90;;;20.40;99.90;;;;;;5069530;28;20063;-52
2022/07/12 11:13:25;;;;;;;8.65;0.90;;;20.10;99.90;;;;;;5069757;28;20035;-57
2022/07/12 11:15:58;;;;;;;4.35;1.40;;;20.00;99.90;;;;;;5069500;28;20041;-52
2022/07/12 11:18:31;;;;;;;3.58;0.80;;;19.70;99.90;;;;;;5069200;28;20029;-52
2022/07/12 11:20:58;;;;;;;4.03;1.15;;;19.50;99.90;;;;;;5069425;28;20114;-52
2022/07/12 11:23:26;;;;;;;3.33;1.10;;;19.40;99.90;;;;;;5069748;28;20036;-52
2022/07/12 11:25:59;;;;;;;5.45;1.10;;;19.30;99.90;;;;;;5069308;28;20040;-52
2022/07/12 11:28:25;;;;;;;3.53;0.85;;;19.30;99.90;;;;;;5069452;28;20032;-53
2022/07/12 11:30:51;;;;;;;2.75;0.85;;;19.50;99.90;;;;;;5069154;28;20055;-54
2022/07/12 11:33:17;;;;;;;1.83;0.80;;;19.90;99.90;;;;;;5069410;28;20103;-53
2022/07/12 11:35:47;;;;;;;2.95;0.38;;;20.40;99.90;;;;;;5068939;28;20055;-54
2022/07/12 11:38:13;;;;;;;3.58;0.95;;;21.10;99.90;;;;;;5065564;28;20029;-53
2022/07/12 11:40:39;;;;;;;5.15;1.33;;;21.10;99.90;;;;;;5067410;28;20035;-53
2022/07/12 11:43:05;;;;;;;5.47;0.80;;;21.20;99.90;;;;;;5067650;28;20502;-54
2022/07/12 11:45:32;;;;;;;2.85;0.77;;;21.50;99.90;;;;;;5068967;28;20032;-53
2022/07/12 11:48:02;;;;;;;1.90;0.80;;;21.70;99.90;;;;;;5068939;28;20554;-53
2022/07/12 11:50:30;;;;;;;1.80;0.50;;;22.10;99.50;;;;;;5068140;28;20097;-54
2022/07/12 11:52:55;;;;;;;;;;;22.20;96.70;;;;;;5068386;28;20494;-54
2022/07/12 11:55:22;;;;;;;16.40;11.05;;;22.00;97.70;;;;;;5067699;28;19908;-51
2022/07/12 11:57:48;;;;;;;2.65;1.23;;;21.80;96.30;;;;;;5067959;28;20344;-54
2022/07/12 12:00:23;;;;;;;2.55;0.90;;;21.80;94.00;;;;;;5063339;28;20502;-52
2022/07/12 12:02:52;;;;;;;2.05;0.70;;;22.20;96.60;;;;;;5060415;28;20593;-53
2022/07/12 12:05:19;;;;;;;4.22;1.15;;;22.50;95.70;;;;;;5050243;28;20468;-51
2022/07/12 12:07:45;;;;;;;3.95;1.02;;;22.80;94.00;;;;;;5067972;28;20040;-52
2022/07/12 12:10:16;;;;;;;4.15;1.27;;;23.10;89.10;;;;;;5058319;28;20041;-52
2022/07/12 12:12:52;;;;;;;4.50;0.68;;;23.20;84.70;;;;;;5057639;28;20020;-52
2022/07/12 12:15:22;;;;;;;3.28;1.00;;;23.00;83.70;;;;;;5066048;28;20043;-52
2022/07/12 12:18:03;;;;;;;9.07;2.08;;;22.70;84.70;;;;;;5068258;28;20024;-53
2022/07/12 12:20:38;;;;;;;9.10;2.42;;;22.50;87.70;;;;;;5068493;28;20028;-51
2022/07/12 12:23:17;;;;;;;10.73;3.65;;;22.40;88.10;;;;;;5060025;28;20053;-52
2022/07/12 12:25:43;;;;;;;4.95;0.65;;;22.60;90.20;;;;;;5059661;28;20032;-55
2022/07/12 12:28:10;;;;;;;3.15;0.70;;;22.60;86.50;;;;;;5062120;28;20029;-53
2022/07/12 12:30:55;;;;;;;5.03;0.77;;;22.50;87.40;;;;;;5059179;28;20028;-53
2022/07/12 12:33:44;;;;;;;5.80;1.20;;;22.70;87.20;;;;;;5062105;28;20040;-53
2022/07/12 12:36:13;;;;;;;2.47;0.90;;;23.10;89.20;;;;;;5070637;28;20117;-53
2022/07/12 12:38:39;;;;;;;6.75;1.80;;;23.20;84.20;;;;;;5072411;28;20110;-54
2022/07/12 12:41:05;;;;;;;4.28;0.75;;;23.00;85.30;;;;;;5071658;28;20025;-53
2022/07/12 12:43:32;;;;;;;4.68;0.90;;;22.70;85.90;;;;;;5072036;28;20032;-53
2022/07/12 12:45:58;;;;;;;4.82;0.85;;;22.60;82.80;;;;;;5072041;28;20028;-53
2022/07/12 12:48:28;;;;;;;2.58;0.68;;;22.50;85.90;;;;;;5071501;28;20416;-53
2022/07/12 12:51:10;;;;;;;4.57;1.35;;;22.70;85.60;;;;;;5071737;28;20094;-52
2022/07/12 12:53:38;;;;;;;1.95;0.52;;;22.60;83.80;;;;;;5071683;28;20570;-52
2022/07/12 12:56:08;;;;;;;1.67;0.52;;;22.50;83.00;;;;;;5063573;28;20331;-54
2022/07/12 12:58:34;;;;;;;6.13;1.40;;;22.30;85.70;;;;;;5069168;28;20128;-53
2022/07/12 13:00:59;;;;;;;3.85;0.70;;;22.20;85.40;;;;;;5066204;28;20125;-53